sensor_id;sensor_type;location;lat;lon;timestamp;P1;durP1;ratioP1;P2;durP2;ratioP2
19291;SDS011;9779;51.756;7.450;2022-09-09T00:04:57;2.70;;;0.80;;
19291;SDS011;9779;51.756;7.450;2022-09-09T00:16:04;0.83;;;0.30;;
19291;SDS011;9779;51.756;7.450;2022-09-09T00:21:36;0.80;;;0.40;;
19291;SDS011;9779;51.756;7.450;2022-09-09T00:24:10;3.47;;;0.70;;
19291;SDS011;9779;51.756;7.450;2022-09-09T00:26:51;0.63;;;0.40;;
19291;SDS011;9779;51.756;7.450;2022-09-09T00:29:31;1.07;;;0.60;;
19291;SDS011;9779;51.756;7.450;2022-09-09T00:32:13;2.27;;;0.63;;
19291;SDS011;9779;51.756;7.450;2022-09-09T00:35:02;3.43;;;0.37;;
19291;SDS011;9779;51.756;7.450;2022-09-09T00:37:49;1.53;;;0.60;;
19291;SDS011;9779;51.756;7.450;2022-09-09T00:40:34;0.53;;;0.40;;
19291;SDS011;9779;51.756;7.450;2022-09-09T00:43:12;0.53;;;0.30;;
19291;SDS011;9779;51.756;7.450;2022-09-09T00:48:39;0.40;;;0.40;;
19291;SDS011;9779;51.756;7.450;2022-09-09T00:51:10;0.70;;;0.50;;
19291;SDS011;9779;51.756;7.450;2022-09-09T00:56:37;0.40;;;0.40;;
19291;SDS011;9779;51.756;7.450;2022-09-09T01:00:14;0.33;;;0.30;;
19291;SDS011;9779;51.756;7.450;2022-09-09T01:02:13;0.40;;;0.30;;
19291;SDS011;9779;51.756;7.450;2022-09-09T01:04:47;0.40;;;0.20;;
19291;SDS011;9779;51.756;7.450;2022-09-09T01:07:15;0.60;;;0.33;;
19291;SDS011;9779;51.756;7.450;2022-09-09T01:09:57;0.87;;;0.40;;
19291;SDS011;9779;51.756;7.450;2022-09-09T01:17:47;1.83;;;0.47;;
19291;SDS011;9779;51.756;7.450;2022-09-09T01:28:49;0.50;;;0.40;;
19291;SDS011;9779;51.756;7.450;2022-09-09T01:31:22;0.93;;;0.30;;
19291;SDS011;9779;51.756;7.450;2022-09-09T01:33:52;0.43;;;0.30;;
19291;SDS011;9779;51.756;7.450;2022-09-09T01:36:35;1.63;;;0.40;;
19291;SDS011;9779;51.756;7.450;2022-09-09T01:39:09;2.43;;;0.50;;
19291;SDS011;9779;51.756;7.450;2022-09-09T01:41:35;1.87;;;0.40;;
19291;SDS011;9779;51.756;7.450;2022-09-09T01:44:01;7.20;;;1.63;;
19291;SDS011;9779;51.756;7.450;2022-09-09T01:46:27;0.50;;;0.30;;
19291;SDS011;9779;51.756;7.450;2022-09-09T01:48:55;0.63;;;0.50;;
19291;SDS011;9779;51.756;7.450;2022-09-09T01:51:22;1.70;;;0.43;;
19291;SDS011;9779;51.756;7.450;2022-09-09T01:53:48;1.00;;;0.50;;
19291;SDS011;9779;51.756;7.450;2022-09-09T02:02:07;1.13;;;0.50;;
19291;SDS011;9779;51.756;7.450;2022-09-09T02:05:02;1.00;;;0.50;;
19291;SDS011;9779;51.756;7.450;2022-09-09T02:07:47;1.20;;;0.40;;
19291;SDS011;9779;51.756;7.450;2022-09-09T02:10:21;1.87;;;0.50;;
19291;SDS011;9779;51.756;7.450;2022-09-09T02:12:52;0.80;;;0.50;;
19291;SDS011;9779;51.756;7.450;2022-09-09T02:15:34;1.80;;;0.43;;
19291;SDS011;9779;51.756;7.450;2022-09-09T02:18:06;0.53;;;0.40;;
19291;SDS011;9779;51.756;7.450;2022-09-09T02:20:36;1.33;;;0.60;;
19291;SDS011;9779;51.756;7.450;2022-09-09T02:23:04;0.60;;;0.50;;
19291;SDS011;9779;51.756;7.450;2022-09-09T02:25:32;0.80;;;0.50;;
19291;SDS011;9779;51.756;7.450;2022-09-09T02:28:00;1.30;;;0.60;;
19291;SDS011;9779;51.756;7.450;2022-09-09T02:30:31;1.33;;;0.60;;
19291;SDS011;9779;51.756;7.450;2022-09-09T02:32:59;0.40;;;0.40;;
19291;SDS011;9779;51.756;7.450;2022-09-09T02:35:28;0.50;;;0.40;;
19291;SDS011;9779;51.756;7.450;2022-09-09T02:37:58;1.50;;;0.97;;
19291;SDS011;9779;51.756;7.450;2022-09-09T02:40:28;1.90;;;0.70;;
19291;SDS011;9779;51.756;7.450;2022-09-09T02:42:54;1.80;;;0.53;;
19291;SDS011;9779;51.756;7.450;2022-09-09T02:45:20;0.50;;;0.40;;
19291;SDS011;9779;51.756;7.450;2022-09-09T02:50:41;0.73;;;0.50;;
19291;SDS011;9779;51.756;7.450;2022-09-09T02:58:19;1.20;;;0.60;;
19291;SDS011;9779;51.756;7.450;2022-09-09T03:00:46;1.07;;;0.60;;
19291;SDS011;9779;51.756;7.450;2022-09-09T03:03:14;1.30;;;0.80;;
19291;SDS011;9779;51.756;7.450;2022-09-09T03:05:44;1.90;;;0.80;;
19291;SDS011;9779;51.756;7.450;2022-09-09T03:08:10;2.33;;;0.90;;
19291;SDS011;9779;51.756;7.450;2022-09-09T03:10:37;1.57;;;0.73;;
19291;SDS011;9779;51.756;7.450;2022-09-09T03:13:04;4.07;;;0.73;;
19291;SDS011;9779;51.756;7.450;2022-09-09T03:15:30;3.07;;;0.70;;
19291;SDS011;9779;51.756;7.450;2022-09-09T03:17:57;5.07;;;1.20;;
19291;SDS011;9779;51.756;7.450;2022-09-09T03:20:23;2.40;;;1.10;;
19291;SDS011;9779;51.756;7.450;2022-09-09T03:22:50;1.30;;;0.73;;
19291;SDS011;9779;51.756;7.450;2022-09-09T03:25:17;3.03;;;0.80;;
19291;SDS011;9779;51.756;7.450;2022-09-09T03:27:43;2.17;;;1.03;;
19291;SDS011;9779;51.756;7.450;2022-09-09T03:30:08;5.77;;;1.07;;
19291;SDS011;9779;51.756;7.450;2022-09-09T03:32:34;1.00;;;0.80;;
19291;SDS011;9779;51.756;7.450;2022-09-09T03:35:00;2.67;;;1.10;;
19291;SDS011;9779;51.756;7.450;2022-09-09T03:37:25;1.90;;;1.30;;
19291;SDS011;9779;51.756;7.450;2022-09-09T03:39:51;1.37;;;0.80;;
19291;SDS011;9779;51.756;7.450;2022-09-09T03:42:19;4.00;;;2.00;;
19291;SDS011;9779;51.756;7.450;2022-09-09T03:44:45;2.03;;;1.00;;
19291;SDS011;9779;51.756;7.450;2022-09-09T03:47:24;2.10;;;1.03;;
19291;SDS011;9779;51.756;7.450;2022-09-09T03:49:50;3.93;;;1.00;;
19291;SDS011;9779;51.756;7.450;2022-09-09T03:52:15;1.73;;;0.90;;
19291;SDS011;9779;51.756;7.450;2022-09-09T03:54:41;0.80;;;0.80;;
19291;SDS011;9779;51.756;7.450;2022-09-09T03:57:07;3.97;;;0.90;;
19291;SDS011;9779;51.756;7.450;2022-09-09T03:59:34;2.13;;;0.80;;
19291;SDS011;9779;51.756;7.450;2022-09-09T04:02:00;1.00;;;0.90;;
19291;SDS011;9779;51.756;7.450;2022-09-09T04:04:26;5.23;;;1.07;;
19291;SDS011;9779;51.756;7.450;2022-09-09T04:06:52;2.30;;;1.13;;
19291;SDS011;9779;51.756;7.450;2022-09-09T04:09:18;3.17;;;1.37;;
19291;SDS011;9779;51.756;7.450;2022-09-09T04:11:43;1.83;;;1.00;;
19291;SDS011;9779;51.756;7.450;2022-09-09T04:14:10;4.60;;;1.00;;
19291;SDS011;9779;51.756;7.450;2022-09-09T04:16:35;9.73;;;1.10;;
19291;SDS011;9779;51.756;7.450;2022-09-09T04:19:04;2.93;;;1.10;;
19291;SDS011;9779;51.756;7.450;2022-09-09T04:21:30;1.63;;;0.97;;
19291;SDS011;9779;51.756;7.450;2022-09-09T04:23:56;1.73;;;0.90;;
19291;SDS011;9779;51.756;7.450;2022-09-09T04:26:21;5.03;;;1.20;;
19291;SDS011;9779;51.756;7.450;2022-09-09T04:28:47;9.30;;;1.30;;
19291;SDS011;9779;51.756;7.450;2022-09-09T04:31:18;1.77;;;1.10;;
19291;SDS011;9779;51.756;7.450;2022-09-09T04:33:46;3.17;;;1.60;;
19291;SDS011;9779;51.756;7.450;2022-09-09T04:36:12;1.77;;;1.00;;
19291;SDS011;9779;51.756;7.450;2022-09-09T04:38:38;4.80;;;1.20;;
19291;SDS011;9779;51.756;7.450;2022-09-09T04:41:04;2.83;;;1.20;;
19291;SDS011;9779;51.756;7.450;2022-09-09T04:43:30;1.73;;;1.00;;
19291;SDS011;9779;51.756;7.450;2022-09-09T04:45:56;2.43;;;0.97;;
19291;SDS011;9779;51.756;7.450;2022-09-09T04:48:23;2.73;;;1.53;;
19291;SDS011;9779;51.756;7.450;2022-09-09T04:50:57;0.97;;;0.87;;
19291;SDS011;9779;51.756;7.450;2022-09-09T04:53:24;4.97;;;0.97;;
19291;SDS011;9779;51.756;7.450;2022-09-09T04:55:50;2.93;;;1.20;;
19291;SDS011;9779;51.756;7.450;2022-09-09T04:58:16;2.83;;;1.27;;
19291;SDS011;9779;51.756;7.450;2022-09-09T05:00:42;3.17;;;1.07;;
19291;SDS011;9779;51.756;7.450;2022-09-09T05:03:07;3.50;;;0.93;;
19291;SDS011;9779;51.756;7.450;2022-09-09T05:05:34;3.83;;;1.00;;
19291;SDS011;9779;51.756;7.450;2022-09-09T05:08:01;5.17;;;1.20;;
19291;SDS011;9779;51.756;7.450;2022-09-09T05:10:30;2.67;;;0.90;;
19291;SDS011;9779;51.756;7.450;2022-09-09T05:12:56;1.87;;;0.87;;
19291;SDS011;9779;51.756;7.450;2022-09-09T05:15:22;2.00;;;1.07;;
19291;SDS011;9779;51.756;7.450;2022-09-09T05:17:48;2.30;;;1.10;;
19291;SDS011;9779;51.756;7.450;2022-09-09T05:20:13;6.43;;;1.13;;
19291;SDS011;9779;51.756;7.450;2022-09-09T05:22:39;3.90;;;1.17;;
19291;SDS011;9779;51.756;7.450;2022-09-09T05:25:05;3.67;;;1.00;;
19291;SDS011;9779;51.756;7.450;2022-09-09T05:27:33;2.37;;;1.00;;
19291;SDS011;9779;51.756;7.450;2022-09-09T05:29:59;4.37;;;1.20;;
19291;SDS011;9779;51.756;7.450;2022-09-09T05:32:24;2.23;;;1.10;;
19291;SDS011;9779;51.756;7.450;2022-09-09T05:34:50;1.90;;;0.63;;
19291;SDS011;9779;51.756;7.450;2022-09-09T05:37:17;3.10;;;1.30;;
19291;SDS011;9779;51.756;7.450;2022-09-09T05:39:43;2.23;;;0.90;;
19291;SDS011;9779;51.756;7.450;2022-09-09T05:42:09;2.70;;;0.97;;
19291;SDS011;9779;51.756;7.450;2022-09-09T05:44:34;2.87;;;1.10;;
19291;SDS011;9779;51.756;7.450;2022-09-09T05:47:00;1.80;;;0.90;;
19291;SDS011;9779;51.756;7.450;2022-09-09T05:49:26;3.00;;;1.30;;
19291;SDS011;9779;51.756;7.450;2022-09-09T05:51:51;2.37;;;1.40;;
19291;SDS011;9779;51.756;7.450;2022-09-09T05:54:17;1.30;;;0.90;;
19291;SDS011;9779;51.756;7.450;2022-09-09T05:56:43;2.70;;;0.90;;
19291;SDS011;9779;51.756;7.450;2022-09-09T05:59:09;3.10;;;0.87;;
19291;SDS011;9779;51.756;7.450;2022-09-09T06:01:35;1.63;;;1.03;;
19291;SDS011;9779;51.756;7.450;2022-09-09T06:04:05;3.83;;;0.77;;
19291;SDS011;9779;51.756;7.450;2022-09-09T06:06:32;3.60;;;1.00;;
19291;SDS011;9779;51.756;7.450;2022-09-09T06:09:02;1.70;;;1.00;;
19291;SDS011;9779;51.756;7.450;2022-09-09T06:11:32;3.10;;;1.20;;
19291;SDS011;9779;51.756;7.450;2022-09-09T06:13:58;3.60;;;1.10;;
19291;SDS011;9779;51.756;7.450;2022-09-09T06:16:26;4.30;;;1.47;;
19291;SDS011;9779;51.756;7.450;2022-09-09T06:18:53;6.67;;;1.17;;
19291;SDS011;9779;51.756;7.450;2022-09-09T06:21:20;3.00;;;1.43;;
19291;SDS011;9779;51.756;7.450;2022-09-09T06:23:48;2.50;;;1.00;;
19291;SDS011;9779;51.756;7.450;2022-09-09T06:26:18;2.20;;;0.93;;
19291;SDS011;9779;51.756;7.450;2022-09-09T06:28:46;3.30;;;1.57;;
19291;SDS011;9779;51.756;7.450;2022-09-09T06:31:13;5.53;;;1.43;;
19291;SDS011;9779;51.756;7.450;2022-09-09T06:33:42;3.30;;;1.00;;
19291;SDS011;9779;51.756;7.450;2022-09-09T06:36:27;3.77;;;1.43;;
19291;SDS011;9779;51.756;7.450;2022-09-09T06:38:54;4.00;;;1.17;;
19291;SDS011;9779;51.756;7.450;2022-09-09T06:41:21;6.30;;;1.00;;
19291;SDS011;9779;51.756;7.450;2022-09-09T06:43:51;1.80;;;0.93;;
19291;SDS011;9779;51.756;7.450;2022-09-09T06:46:26;8.13;;;1.20;;
19291;SDS011;9779;51.756;7.450;2022-09-09T06:48:53;4.67;;;1.40;;
19291;SDS011;9779;51.756;7.450;2022-09-09T06:51:33;2.57;;;1.10;;
19291;SDS011;9779;51.756;7.450;2022-09-09T06:54:00;4.47;;;1.37;;
19291;SDS011;9779;51.756;7.450;2022-09-09T06:56:32;4.83;;;1.60;;
19291;SDS011;9779;51.756;7.450;2022-09-09T06:59:00;4.13;;;1.13;;
19291;SDS011;9779;51.756;7.450;2022-09-09T07:01:29;2.97;;;1.03;;
19291;SDS011;9779;51.756;7.450;2022-09-09T07:03:57;2.87;;;1.27;;
19291;SDS011;9779;51.756;7.450;2022-09-09T07:06:43;3.27;;;1.33;;
19291;SDS011;9779;51.756;7.450;2022-09-09T07:09:11;3.87;;;1.07;;
19291;SDS011;9779;51.756;7.450;2022-09-09T07:11:40;8.83;;;1.23;;
19291;SDS011;9779;51.756;7.450;2022-09-09T07:14:07;2.20;;;1.23;;
19291;SDS011;9779;51.756;7.450;2022-09-09T07:16:33;4.20;;;1.43;;
19291;SDS011;9779;51.756;7.450;2022-09-09T07:19:02;2.63;;;1.10;;
19291;SDS011;9779;51.756;7.450;2022-09-09T07:21:29;1.87;;;0.90;;
19291;SDS011;9779;51.756;7.450;2022-09-09T07:23:56;5.47;;;1.50;;
19291;SDS011;9779;51.756;7.450;2022-09-09T07:26:23;1.93;;;0.97;;
19291;SDS011;9779;51.756;7.450;2022-09-09T07:28:50;3.87;;;1.10;;
19291;SDS011;9779;51.756;7.450;2022-09-09T07:31:18;4.87;;;0.90;;
19291;SDS011;9779;51.756;7.450;2022-09-09T07:33:45;3.37;;;1.40;;
19291;SDS011;9779;51.756;7.450;2022-09-09T07:36:13;5.27;;;1.70;;
19291;SDS011;9779;51.756;7.450;2022-09-09T07:38:44;1.97;;;1.00;;
19291;SDS011;9779;51.756;7.450;2022-09-09T07:41:16;4.23;;;1.23;;
19291;SDS011;9779;51.756;7.450;2022-09-09T07:43:50;3.50;;;1.20;;
19291;SDS011;9779;51.756;7.450;2022-09-09T07:46:17;3.57;;;1.10;;
19291;SDS011;9779;51.756;7.450;2022-09-09T07:48:45;3.00;;;1.17;;
19291;SDS011;9779;51.756;7.450;2022-09-09T07:51:15;4.60;;;1.07;;
19291;SDS011;9779;51.756;7.450;2022-09-09T07:53:44;6.97;;;1.30;;
19291;SDS011;9779;51.756;7.450;2022-09-09T07:56:12;5.00;;;0.93;;
19291;SDS011;9779;51.756;7.450;2022-09-09T07:58:41;7.77;;;1.20;;
19291;SDS011;9779;51.756;7.450;2022-09-09T08:01:10;4.03;;;1.10;;
19291;SDS011;9779;51.756;7.450;2022-09-09T08:03:44;5.00;;;1.30;;
19291;SDS011;9779;51.756;7.450;2022-09-09T08:06:11;4.57;;;1.87;;
19291;SDS011;9779;51.756;7.450;2022-09-09T08:08:37;3.97;;;1.00;;
19291;SDS011;9779;51.756;7.450;2022-09-09T08:11:07;3.40;;;1.17;;
19291;SDS011;9779;51.756;7.450;2022-09-09T08:13:35;3.33;;;1.00;;
19291;SDS011;9779;51.756;7.450;2022-09-09T08:16:05;2.83;;;1.30;;
19291;SDS011;9779;51.756;7.450;2022-09-09T08:18:36;4.77;;;1.10;;
19291;SDS011;9779;51.756;7.450;2022-09-09T08:21:10;2.87;;;0.77;;
19291;SDS011;9779;51.756;7.450;2022-09-09T08:23:41;4.13;;;0.90;;
19291;SDS011;9779;51.756;7.450;2022-09-09T08:28:41;4.13;;;1.50;;
19291;SDS011;9779;51.756;7.450;2022-09-09T08:31:08;4.20;;;1.40;;
19291;SDS011;9779;51.756;7.450;2022-09-09T08:33:35;4.23;;;1.00;;
19291;SDS011;9779;51.756;7.450;2022-09-09T08:36:03;3.30;;;1.23;;
19291;SDS011;9779;51.756;7.450;2022-09-09T08:38:29;2.40;;;1.10;;
19291;SDS011;9779;51.756;7.450;2022-09-09T08:40:57;2.87;;;0.80;;
19291;SDS011;9779;51.756;7.450;2022-09-09T08:43:32;3.37;;;0.97;;
19291;SDS011;9779;51.756;7.450;2022-09-09T08:50:56;2.70;;;1.00;;
19291;SDS011;9779;51.756;7.450;2022-09-09T08:53:27;7.00;;;1.13;;
19291;SDS011;9779;51.756;7.450;2022-09-09T08:55:58;3.67;;;0.70;;
19291;SDS011;9779;51.756;7.450;2022-09-09T08:58:30;9.53;;;1.07;;
19291;SDS011;9779;51.756;7.450;2022-09-09T09:11:37;5.23;;;1.60;;
19291;SDS011;9779;51.756;7.450;2022-09-09T09:14:08;5.20;;;1.23;;
19291;SDS011;9779;51.756;7.450;2022-09-09T09:19:16;3.83;;;1.00;;
19291;SDS011;9779;51.756;7.450;2022-09-09T09:24:20;3.72;;;0.90;;
19291;SDS011;9779;51.756;7.450;2022-09-09T09:26:49;3.37;;;1.03;;
19291;SDS011;9779;51.756;7.450;2022-09-09T09:29:17;3.10;;;1.27;;
19291;SDS011;9779;51.756;7.450;2022-09-09T09:31:48;6.17;;;1.47;;
19291;SDS011;9779;51.756;7.450;2022-09-09T09:34:21;4.63;;;1.33;;
19291;SDS011;9779;51.756;7.450;2022-09-09T09:36:58;3.00;;;1.30;;
19291;SDS011;9779;51.756;7.450;2022-09-09T09:39:30;5.53;;;1.20;;
19291;SDS011;9779;51.756;7.450;2022-09-09T09:42:09;6.20;;;1.30;;
19291;SDS011;9779;51.756;7.450;2022-09-09T09:44:38;4.37;;;1.30;;
19291;SDS011;9779;51.756;7.450;2022-09-09T09:47:12;4.10;;;1.10;;
19291;SDS011;9779;51.756;7.450;2022-09-09T09:49:41;5.73;;;1.33;;
19291;SDS011;9779;51.756;7.450;2022-09-09T09:52:22;3.77;;;1.37;;
19291;SDS011;9779;51.756;7.450;2022-09-09T09:54:49;4.83;;;1.13;;
19291;SDS011;9779;51.756;7.450;2022-09-09T09:57:16;2.87;;;1.10;;
19291;SDS011;9779;51.756;7.450;2022-09-09T09:59:42;6.47;;;1.27;;
19291;SDS011;9779;51.756;7.450;2022-09-09T10:02:24;4.77;;;1.10;;
19291;SDS011;9779;51.756;7.450;2022-09-09T10:05:02;3.87;;;1.10;;
19291;SDS011;9779;51.756;7.450;2022-09-09T10:07:45;3.60;;;1.50;;
19291;SDS011;9779;51.756;7.450;2022-09-09T10:10:22;7.67;;;1.00;;
19291;SDS011;9779;51.756;7.450;2022-09-09T10:13:07;3.03;;;1.03;;
19291;SDS011;9779;51.756;7.450;2022-09-09T10:15:56;5.70;;;1.10;;
19291;SDS011;9779;51.756;7.450;2022-09-09T10:18:36;6.57;;;1.47;;
19291;SDS011;9779;51.756;7.450;2022-09-09T10:24:11;1.47;;;1.03;;
19291;SDS011;9779;51.756;7.450;2022-09-09T10:29:30;2.20;;;0.93;;
19291;SDS011;9779;51.756;7.450;2022-09-09T10:37:45;3.17;;;1.20;;
19291;SDS011;9779;51.756;7.450;2022-09-09T10:48:54;2.90;;;1.00;;
19291;SDS011;9779;51.756;7.450;2022-09-09T10:51:50;11.10;;;1.10;;
19291;SDS011;9779;51.756;7.450;2022-09-09T10:56:56;3.88;;;1.23;;
19291;SDS011;9779;51.756;7.450;2022-09-09T10:59:27;2.10;;;0.90;;
19291;SDS011;9779;51.756;7.450;2022-09-09T11:02:01;4.27;;;1.03;;
19291;SDS011;9779;51.756;7.450;2022-09-09T11:04:42;1.45;;;0.70;;
19291;SDS011;9779;51.756;7.450;2022-09-09T11:07:18;3.27;;;0.90;;
19291;SDS011;9779;51.756;7.450;2022-09-09T11:09:53;2.70;;;1.20;;
19291;SDS011;9779;51.756;7.450;2022-09-09T11:12:23;3.13;;;1.00;;
19291;SDS011;9779;51.756;7.450;2022-09-09T11:14:54;2.53;;;1.35;;
19291;SDS011;9779;51.756;7.450;2022-09-09T11:17:23;2.53;;;0.95;;
19291;SDS011;9779;51.756;7.450;2022-09-09T11:19:54;2.05;;;0.88;;
19291;SDS011;9779;51.756;7.450;2022-09-09T11:22:30;1.63;;;0.97;;
19291;SDS011;9779;51.756;7.450;2022-09-09T11:25:08;3.40;;;0.65;;
19291;SDS011;9779;51.756;7.450;2022-09-09T11:33:24;3.08;;;0.80;;
19291;SDS011;9779;51.756;7.450;2022-09-09T11:42:05;2.20;;;0.75;;
19291;SDS011;9779;51.756;7.450;2022-09-09T11:44:37;6.95;;;0.73;;
19291;SDS011;9779;51.756;7.450;2022-09-09T11:47:04;3.20;;;0.70;;
19291;SDS011;9779;51.756;7.450;2022-09-09T11:52:44;1.38;;;0.70;;
19291;SDS011;9779;51.756;7.450;2022-09-09T11:55:24;1.60;;;0.50;;
19291;SDS011;9779;51.756;7.450;2022-09-09T11:57:58;1.17;;;0.60;;
19291;SDS011;9779;51.756;7.450;2022-09-09T12:00:32;2.40;;;0.80;;
19291;SDS011;9779;51.756;7.450;2022-09-09T12:03:49;2.58;;;0.65;;
19291;SDS011;9779;51.756;7.450;2022-09-09T12:06:41;2.88;;;0.70;;
19291;SDS011;9779;51.756;7.450;2022-09-09T12:09:24;3.00;;;1.08;;
19291;SDS011;9779;51.756;7.450;2022-09-09T12:11:52;1.60;;;0.70;;
19291;SDS011;9779;51.756;7.450;2022-09-09T12:14:22;1.75;;;0.55;;
19291;SDS011;9779;51.756;7.450;2022-09-09T12:17:21;1.33;;;0.50;;
19291;SDS011;9779;51.756;7.450;2022-09-09T12:19:48;3.47;;;0.47;;
19291;SDS011;9779;51.756;7.450;2022-09-09T12:28:09;1.85;;;0.55;;
19291;SDS011;9779;51.756;7.450;2022-09-09T12:30:47;1.80;;;0.60;;
19291;SDS011;9779;51.756;7.450;2022-09-09T12:33:21;1.35;;;0.52;;
19291;SDS011;9779;51.756;7.450;2022-09-09T12:35:56;2.53;;;1.00;;
19291;SDS011;9779;51.756;7.450;2022-09-09T12:38:28;0.95;;;0.38;;
19291;SDS011;9779;51.756;7.450;2022-09-09T12:41:04;1.00;;;0.50;;
19291;SDS011;9779;51.756;7.450;2022-09-09T12:43:30;1.40;;;0.50;;
19291;SDS011;9779;51.756;7.450;2022-09-09T12:45:57;1.08;;;0.40;;
19291;SDS011;9779;51.756;7.450;2022-09-09T12:48:27;1.05;;;0.63;;
19291;SDS011;9779;51.756;7.450;2022-09-09T12:51:02;1.63;;;0.50;;
19291;SDS011;9779;51.756;7.450;2022-09-09T12:53:32;2.90;;;0.50;;
19291;SDS011;9779;51.756;7.450;2022-09-09T12:56:04;1.40;;;0.60;;
19291;SDS011;9779;51.756;7.450;2022-09-09T12:58:35;1.70;;;0.40;;
19291;SDS011;9779;51.756;7.450;2022-09-09T13:01:03;2.17;;;0.57;;
19291;SDS011;9779;51.756;7.450;2022-09-09T13:03:30;1.25;;;0.50;;
19291;SDS011;9779;51.756;7.450;2022-09-09T13:06:13;1.48;;;0.63;;
19291;SDS011;9779;51.756;7.450;2022-09-09T13:08:43;1.63;;;0.55;;
19291;SDS011;9779;51.756;7.450;2022-09-09T13:11:10;1.40;;;0.60;;
19291;SDS011;9779;51.756;7.450;2022-09-09T13:13:41;0.82;;;0.60;;
19291;SDS011;9779;51.756;7.450;2022-09-09T13:16:21;2.00;;;0.63;;
19291;SDS011;9779;51.756;7.450;2022-09-09T13:18:55;1.40;;;0.60;;
19291;SDS011;9779;51.756;7.450;2022-09-09T13:21:30;1.00;;;0.50;;
19291;SDS011;9779;51.756;7.450;2022-09-09T13:24:00;0.60;;;0.40;;
19291;SDS011;9779;51.756;7.450;2022-09-09T13:26:28;1.52;;;0.50;;
19291;SDS011;9779;51.756;7.450;2022-09-09T13:29:07;3.20;;;0.50;;
19291;SDS011;9779;51.756;7.450;2022-09-09T13:31:42;2.25;;;0.63;;
19291;SDS011;9779;51.756;7.450;2022-09-09T13:34:12;1.35;;;0.40;;
19291;SDS011;9779;51.756;7.450;2022-09-09T13:37:02;1.25;;;0.50;;
19291;SDS011;9779;51.756;7.450;2022-09-09T13:39:33;1.30;;;0.45;;
19291;SDS011;9779;51.756;7.450;2022-09-09T13:42:02;1.40;;;0.60;;
19291;SDS011;9779;51.756;7.450;2022-09-09T13:44:33;0.98;;;0.50;;
19291;SDS011;9779;51.756;7.450;2022-09-09T13:49:39;1.83;;;0.65;;
19291;SDS011;9779;51.756;7.450;2022-09-09T13:52:09;1.48;;;0.50;;
19291;SDS011;9779;51.756;7.450;2022-09-09T13:54:40;3.75;;;0.50;;
19291;SDS011;9779;51.756;7.450;2022-09-09T13:57:23;2.70;;;0.40;;
19291;SDS011;9779;51.756;7.450;2022-09-09T13:59:50;1.60;;;0.60;;
19291;SDS011;9779;51.756;7.450;2022-09-09T14:02:16;2.58;;;0.30;;
19291;SDS011;9779;51.756;7.450;2022-09-09T14:04:43;0.98;;;0.30;;
19291;SDS011;9779;51.756;7.450;2022-09-09T14:07:13;1.98;;;0.20;;
19291;SDS011;9779;51.756;7.450;2022-09-09T14:09:40;4.05;;;0.30;;
19291;SDS011;9779;51.756;7.450;2022-09-09T14:12:08;3.37;;;0.30;;
19291;SDS011;9779;51.756;7.450;2022-09-09T14:14:40;0.83;;;0.40;;
19291;SDS011;9779;51.756;7.450;2022-09-09T14:17:07;0.50;;;0.23;;
19291;SDS011;9779;51.756;7.450;2022-09-09T14:19:33;3.23;;;0.47;;
19291;SDS011;9779;51.756;7.450;2022-09-09T14:21:59;0.67;;;0.50;;
19291;SDS011;9779;51.756;7.450;2022-09-09T14:24:24;2.13;;;0.30;;
19291;SDS011;9779;51.756;7.450;2022-09-09T14:26:50;1.80;;;0.80;;
19291;SDS011;9779;51.756;7.450;2022-09-09T14:29:16;9.07;;;1.17;;
19291;SDS011;9779;51.756;7.450;2022-09-09T14:31:42;2.63;;;0.97;;
19291;SDS011;9779;51.756;7.450;2022-09-09T14:34:07;5.70;;;0.93;;
19291;SDS011;9779;51.756;7.450;2022-09-09T14:36:35;5.67;;;1.07;;
19291;SDS011;9779;51.756;7.450;2022-09-09T14:39:02;1.80;;;0.80;;
19291;SDS011;9779;51.756;7.450;2022-09-09T14:41:28;1.27;;;0.70;;
19291;SDS011;9779;51.756;7.450;2022-09-09T14:43:55;1.83;;;0.70;;
19291;SDS011;9779;51.756;7.450;2022-09-09T14:46:21;2.97;;;0.77;;
19291;SDS011;9779;51.756;7.450;2022-09-09T14:48:47;5.17;;;0.80;;
19291;SDS011;9779;51.756;7.450;2022-09-09T14:51:14;4.33;;;0.77;;
19291;SDS011;9779;51.756;7.450;2022-09-09T14:53:42;1.37;;;0.57;;
19291;SDS011;9779;51.756;7.450;2022-09-09T14:56:13;5.23;;;1.00;;
19291;SDS011;9779;51.756;7.450;2022-09-09T14:58:40;2.97;;;0.60;;
19291;SDS011;9779;51.756;7.450;2022-09-09T15:01:07;2.27;;;0.80;;
19291;SDS011;9779;51.756;7.450;2022-09-09T15:03:37;1.40;;;0.50;;
19291;SDS011;9779;51.756;7.450;2022-09-09T15:06:05;1.77;;;0.50;;
19291;SDS011;9779;51.756;7.450;2022-09-09T15:08:38;1.20;;;0.47;;
19291;SDS011;9779;51.756;7.450;2022-09-09T15:11:06;2.43;;;0.50;;
19291;SDS011;9779;51.756;7.450;2022-09-09T15:13:35;3.07;;;0.90;;
19291;SDS011;9779;51.756;7.450;2022-09-09T15:16:05;1.67;;;0.70;;
19291;SDS011;9779;51.756;7.450;2022-09-09T15:18:32;2.67;;;0.60;;
19291;SDS011;9779;51.756;7.450;2022-09-09T15:21:04;1.80;;;0.40;;
19291;SDS011;9779;51.756;7.450;2022-09-09T15:23:31;0.90;;;0.50;;
19291;SDS011;9779;51.756;7.450;2022-09-09T15:25:57;1.73;;;0.60;;
19291;SDS011;9779;51.756;7.450;2022-09-09T15:28:23;2.00;;;0.50;;
19291;SDS011;9779;51.756;7.450;2022-09-09T15:30:52;4.30;;;0.73;;
19291;SDS011;9779;51.756;7.450;2022-09-09T15:33:19;1.13;;;0.63;;
19291;SDS011;9779;51.756;7.450;2022-09-09T15:35:45;3.13;;;1.00;;
19291;SDS011;9779;51.756;7.450;2022-09-09T15:38:11;1.93;;;0.70;;
19291;SDS011;9779;51.756;7.450;2022-09-09T15:40:41;1.27;;;0.50;;
19291;SDS011;9779;51.756;7.450;2022-09-09T15:43:07;1.03;;;0.67;;
19291;SDS011;9779;51.756;7.450;2022-09-09T15:45:34;0.67;;;0.40;;
19291;SDS011;9779;51.756;7.450;2022-09-09T15:48:00;1.33;;;0.60;;
19291;SDS011;9779;51.756;7.450;2022-09-09T15:50:26;6.20;;;1.63;;
19291;SDS011;9779;51.756;7.450;2022-09-09T15:52:52;1.70;;;0.70;;
19291;SDS011;9779;51.756;7.450;2022-09-09T15:55:18;2.00;;;0.80;;
19291;SDS011;9779;51.756;7.450;2022-09-09T15:57:45;2.00;;;0.70;;
19291;SDS011;9779;51.756;7.450;2022-09-09T16:00:11;1.97;;;0.80;;
19291;SDS011;9779;51.756;7.450;2022-09-09T16:02:38;2.50;;;1.13;;
19291;SDS011;9779;51.756;7.450;2022-09-09T16:05:04;1.43;;;0.63;;
19291;SDS011;9779;51.756;7.450;2022-09-09T16:07:30;0.90;;;0.50;;
19291;SDS011;9779;51.756;7.450;2022-09-09T16:09:56;5.97;;;0.80;;
19291;SDS011;9779;51.756;7.450;2022-09-09T16:12:21;1.23;;;0.60;;
19291;SDS011;9779;51.756;7.450;2022-09-09T16:14:47;2.70;;;0.60;;
19291;SDS011;9779;51.756;7.450;2022-09-09T16:17:12;1.17;;;0.60;;
19291;SDS011;9779;51.756;7.450;2022-09-09T16:19:39;1.73;;;0.70;;
19291;SDS011;9779;51.756;7.450;2022-09-09T16:22:04;2.47;;;0.87;;
19291;SDS011;9779;51.756;7.450;2022-09-09T16:24:31;1.40;;;0.63;;
19291;SDS011;9779;51.756;7.450;2022-09-09T16:26:57;3.27;;;1.13;;
19291;SDS011;9779;51.756;7.450;2022-09-09T16:29:22;1.83;;;0.60;;
19291;SDS011;9779;51.756;7.450;2022-09-09T16:31:51;1.90;;;0.70;;
19291;SDS011;9779;51.756;7.450;2022-09-09T16:34:16;1.27;;;0.60;;
19291;SDS011;9779;51.756;7.450;2022-09-09T16:36:43;3.80;;;0.70;;
19291;SDS011;9779;51.756;7.450;2022-09-09T16:39:10;3.67;;;0.63;;
19291;SDS011;9779;51.756;7.450;2022-09-09T16:41:37;2.40;;;0.90;;
19291;SDS011;9779;51.756;7.450;2022-09-09T16:44:08;0.93;;;0.67;;
19291;SDS011;9779;51.756;7.450;2022-09-09T16:46:35;1.43;;;0.60;;
19291;SDS011;9779;51.756;7.450;2022-09-09T16:49:04;0.80;;;0.60;;
19291;SDS011;9779;51.756;7.450;2022-09-09T16:51:32;1.73;;;0.60;;
19291;SDS011;9779;51.756;7.450;2022-09-09T16:54:00;1.07;;;0.60;;
19291;SDS011;9779;51.756;7.450;2022-09-09T16:56:28;0.70;;;0.63;;
19291;SDS011;9779;51.756;7.450;2022-09-09T16:58:57;1.13;;;0.50;;
19291;SDS011;9779;51.756;7.450;2022-09-09T17:01:25;1.67;;;0.67;;
19291;SDS011;9779;51.756;7.450;2022-09-09T17:03:55;2.43;;;0.40;;
19291;SDS011;9779;51.756;7.450;2022-09-09T17:06:22;5.43;;;0.60;;
19291;SDS011;9779;51.756;7.450;2022-09-09T17:08:53;0.70;;;0.40;;
19291;SDS011;9779;51.756;7.450;2022-09-09T17:11:19;1.80;;;0.53;;
19291;SDS011;9779;51.756;7.450;2022-09-09T17:13:45;5.20;;;0.40;;
19291;SDS011;9779;51.756;7.450;2022-09-09T17:16:12;3.60;;;0.73;;